sensor_id;sensor_type;location;lat;lon;timestamp;pressure;altitude;pressure_sealevel;temperature;humidity
31162;BME280;17796;49.296;-117.656;2024-02-23T00:14:28;97300;;;6.36301;100.0
31162;BME280;17796;49.296;-117.656;2024-02-23T00:29:32;97300;;;6.25153;100.0
31162;BME280;17796;49.296;-117.656;2024-02-23T00:44:36;97300;;;7.18397;100.0
31162;BME280;17796;49.296;-117.656;2024-02-23T00:59:39;97300;;;7.5908;97.55268
31162;BME280;17796;49.296;-117.656;2024-02-23T01:14:44;97300;;;7.38087;100.0
31162;BME280;17796;49.296;-117.656;2024-02-23T01:29:48;97300;;;7.5295;98.52753
31162;BME280;17796;49.296;-117.656;2024-02-23T01:44:51;97300;;;6.94038;100.0
31162;BME280;17796;49.296;-117.656;2024-02-23T01:59:56;97300;;;6.31982;100.0
31162;BME280;17796;49.296;-117.656;2024-02-23T02:15:00;97300;;;6.437;100.0
31162;BME280;17796;49.296;-117.656;2024-02-23T02:30:09;97300;;;5.52046;100.0
31162;BME280;17796;49.296;-117.656;2024-02-23T02:45:13;97300;;;6.13752;100.0
31162;BME280;17796;49.296;-117.656;2024-02-23T03:00:17;97300;;;6.13593;100.0
31162;BME280;17796;49.296;-117.656;2024-02-23T03:15:20;97300;;;6.51926;100.0
31162;BME280;17796;49.296;-117.656;2024-02-23T03:30:24;97300;;;6.08194;100.0
31162;BME280;17796;49.296;-117.656;2024-02-23T03:45:29;97300;;;6.04733;100.0
31162;BME280;17796;49.296;-117.656;2024-02-23T04:00:33;97300;;;5.89838;100.0
31162;BME280;17796;49.296;-117.656;2024-02-23T04:15:37;97300;;;5.65035;100.0
31162;BME280;17796;49.296;-117.656;2024-02-23T04:30:41;97400;;;5.42074;100.0
31162;BME280;17796;49.296;-117.656;2024-02-23T04:45:45;97400;;;6.24772;100.0
31162;BME280;17796;49.296;-117.656;2024-02-23T05:00:50;97400;;;6.36714;100.0
31162;BME280;17796;49.296;-117.656;2024-02-23T05:15:55;97400;;;6.28361;100.0
31162;BME280;17796;49.296;-117.656;2024-02-23T05:30:59;97400;;;6.46051;100.0
31162;BME280;17796;49.296;-117.656;2024-02-23T05:46:05;97400;;;5.81263;100.0
31162;BME280;17796;49.296;-117.656;2024-02-23T06:01:08;97400;;;6.08353;100.0
31162;BME280;17796;49.296;-117.656;2024-02-23T06:16:12;97400;;;5.76913;100.0
31162;BME280;17796;49.296;-117.656;2024-02-23T06:31:15;97400;;;6.05813;100.0
31162;BME280;17796;49.296;-117.656;2024-02-23T06:46:22;97400;;;6.01303;100.0
31162;BME280;17796;49.296;-117.656;2024-02-23T07:01:33;97400;;;5.56143;100.0
31162;BME280;17796;49.296;-117.656;2024-02-23T07:16:37;97400;;;5.5592;100.0
31162;BME280;17796;49.296;-117.656;2024-02-23T07:31:41;97400;;;5.67512;100.0
31162;BME280;17796;49.296;-117.656;2024-02-23T07:46:45;97400;;;5.38358;100.0
31162;BME280;17796;49.296;-117.656;2024-02-23T08:01:49;97500;;;5.28132;100.0
31162;BME280;17796;49.296;-117.656;2024-02-23T08:16:52;97500;;;5.19716;100.0
31162;BME280;17796;49.296;-117.656;2024-02-23T08:31:56;97500;;;5.05393;100.0
31162;BME280;17796;49.296;-117.656;2024-02-23T08:47:06;97500;;;5.10252;100.0
31162;BME280;17796;49.296;-117.656;2024-02-23T09:02:09;97500;;;4.13422;100.0
31162;BME280;17796;49.296;-117.656;2024-02-23T09:17:18;97400;;;4.82432;100.0
31162;BME280;17796;49.296;-117.656;2024-02-23T09:32:21;97400;;;5.01423;100.0
31162;BME280;17796;49.296;-117.656;2024-02-23T09:47:25;97400;;;4.79034;100.0
31162;BME280;17796;49.296;-117.656;2024-02-23T10:02:30;97400;;;4.84592;100.0
31162;BME280;17796;49.296;-117.656;2024-02-23T10:17:34;97400;;;4.63568;100.0
31162;BME280;17796;49.296;-117.656;2024-02-23T10:32:38;97400;;;4.49467;100.0
31162;BME280;17796;49.296;-117.656;2024-02-23T10:47:43;97400;;;4.27269;100.0
31162;BME280;17796;49.296;-117.656;2024-02-23T11:02:49;97400;;;4.23299;100.0
31162;BME280;17796;49.296;-117.656;2024-02-23T11:17:55;97400;;;3.75567;100.0
31162;BME280;17796;49.296;-117.656;2024-02-23T11:32:59;97400;;;3.9929;100.0
31162;BME280;17796;49.296;-117.656;2024-02-23T11:48:04;97400;;;3.83761;100.0
31162;BME280;17796;49.296;-117.656;2024-02-23T12:03:08;97400;;;4.02466;100.0
31162;BME280;17796;49.296;-117.656;2024-02-23T12:18:12;97400;;;4.04308;100.0
31162;BME280;17796;49.296;-117.656;2024-02-23T12:33:16;97400;;;3.71375;100.0
31162;BME280;17796;49.296;-117.656;2024-02-23T12:48:21;97400;;;3.57656;100.0
31162;BME280;17796;49.296;-117.656;2024-02-23T13:03:25;97400;;;3.01985;100.0
31162;BME280;17796;49.296;-117.656;2024-02-23T13:18:30;97400;;;3.17832;100.0
31162;BME280;17796;49.296;-117.656;2024-02-23T13:33:33;97400;;;3.14625;100.0
31162;BME280;17796;49.296;-117.656;2024-02-23T13:48:37;97400;;;3.48351;100.0
31162;BME280;17796;49.296;-117.656;2024-02-23T14:03:41;97400;;;3.42952;100.0
31162;BME280;17796;49.296;-117.656;2024-02-23T14:18:44;97400;;;4.12438;100.0
31162;BME280;17796;49.296;-117.656;2024-02-23T14:33:48;97400;;;3.52289;100.0
31162;BME280;17796;49.296;-117.656;2024-02-23T14:48:52;97400;;;3.6315;100.0
31162;BME280;17796;49.296;-117.656;2024-02-23T15:03:56;97400;;;3.56132;100.0
31162;BME280;17796;49.296;-117.656;2024-02-23T15:18:59;97400;;;4.21838;100.0
31162;BME280;17796;49.296;-117.656;2024-02-23T15:34:03;97400;;;4.53564;100.0
31162;BME280;17796;49.296;-117.656;2024-02-23T15:49:07;97400;;;4.57851;100.0
31162;BME280;17796;49.296;-117.656;2024-02-23T16:04:11;97400;;;4.68205;100.0
31162;BME280;17796;49.296;-117.656;2024-02-23T16:19:15;97400;;;5.23114;100.0
31162;BME280;17796;49.296;-117.656;2024-02-23T16:34:18;97400;;;4.29746;100.0
31162;BME280;17796;49.296;-117.656;2024-02-23T16:49:22;97400;;;4.17551;100.0
31162;BME280;17796;49.296;-117.656;2024-02-23T17:04:26;97400;;;4.08405;100.0
31162;BME280;17796;49.296;-117.656;2024-02-23T17:19:30;97400;;;4.63155;100.0
31162;BME280;17796;49.296;-117.656;2024-02-23T17:34:34;97400;;;4.72015;100.0
31162;BME280;17796;49.296;-117.656;2024-02-23T17:49:38;97400;;;5.72498;100.0
31162;BME280;17796;49.296;-117.656;2024-02-23T18:04:42;97300;;;5.25305;100.0
31162;BME280;17796;49.296;-117.656;2024-02-23T18:19:45;97300;;;5.53157;100.0
31162;BME280;17796;49.296;-117.656;2024-02-23T18:34:49;97300;;;6.33284;100.0
31162;BME280;17796;49.296;-117.656;2024-02-23T18:49:53;97300;;;9.99562;86.7824
31162;BME280;17796;49.296;-117.656;2024-02-23T19:04:56;97200;;;10.33735;80.07468
31162;BME280;17796;49.296;-117.656;2024-02-23T19:20:00;97200;;;11.00813;61.12381
31162;BME280;17796;49.296;-117.656;2024-02-23T19:35:04;97200;;;9.12509;72.39312
31162;BME280;17796;49.296;-117.656;2024-02-23T19:50:08;97200;;;8.64139;71.79188
31162;BME280;17796;49.296;-117.656;2024-02-23T20:05:12;97100;;;7.68957;71.61868
31162;BME280;17796;49.296;-117.656;2024-02-23T20:20:16;97100;;;8.99964;67.82286
31162;BME280;17796;49.296;-117.656;2024-02-23T20:35:20;97100;;;8.63631;63.90129
31162;BME280;17796;49.296;-117.656;2024-02-23T20:50:23;97100;;;9.27626;63.3951
31162;BME280;17796;49.296;-117.656;2024-02-23T21:05:27;97000;;;9.39282;56.33751
31162;BME280;17796;49.296;-117.656;2024-02-23T21:20:32;97000;;;10.39865;60.4068
31162;BME280;17796;49.296;-117.656;2024-02-23T21:35:36;97000;;;10.30718;57.3257
31162;BME280;17796;49.296;-117.656;2024-02-23T21:50:39;96900;;;9.2445;57.29709
31162;BME280;17796;49.296;-117.656;2024-02-23T22:05:43;96900;;;9.81967;53.50876
31162;BME280;17796;49.296;-117.656;2024-02-23T22:20:46;96900;;;10.30687;53.35068
31162;BME280;17796;49.296;-117.656;2024-02-23T22:35:50;96900;;;9.369;59.1717
31162;BME280;17796;49.296;-117.656;2024-02-23T22:50:54;96800;;;10.26113;54.75148
31162;BME280;17796;49.296;-117.656;2024-02-23T23:05:58;96800;;;9.14573;57.32651
31162;BME280;17796;49.296;-117.656;2024-02-23T23:21:02;96800;;;9.7336;58.99793
31162;BME280;17796;49.296;-117.656;2024-02-23T23:36:08;96800;;;8.97296;59.02961
31162;BME280;17796;49.296;-117.656;2024-02-23T23:51:12;96700;;;8.21137;67.48504
